Accueil
METAR-TAF:

METAR-TAF

Aéroports :

Aéroport de Sylt

Westerland, Allemagne

latitude: 54-55N, longitude: 008-21E, altitude: 16 m

Observation

Le bulletin a été fait il y a 7 heures et 6 minutes, à 13:20 UTC
Vent 16 kt de nord-ouest
Température 14°C
Humidité 77%
Pression 1016 hPa
Visibilité 10 km ou plus
Nuages fragmentés à une hauteur de 1700 ft
Ciel couvert à une hauteur de 2400 ft

METAR: EDXW 221320Z 31016KT 9999 BKN017 OVC024 14/10 Q1016

Heure: 22:26 (20:26 UTC)

Prévision

Le bulletin a été fait il y a 6 heures et 26 minutes, à 14:00 UTC
Prévision valable du 22 à 15 UTC au 22 à 21 UTC
Vent 15 kt de nord-ouest
Visibilité 10 km ou plus
Nuages fragmentés à une hauteur de 3000 ft
Probabilité 40% :
Temporairement
du 22 à 15 UTC au 22 à 21 UTC
Nuages fragmentés à une hauteur de 1400 ft

TAF: EDXW 221400Z 2215/2221 31015KT 9999 BKN030 PROB40 TEMPO 2215/2221 BKN014

Observations et prévisions météorologiques de plus de 4000 aéroports (messages METAR et TAF).

Les stations disponibles sont représentées par des disques jaunes et rouges sur la carte.

Passer la souris dessus pour voir le nom de la station.

Cliquer dessus pour voir les observations et prévisions météorologiques.

Pour changer de carte: cliquez sur les boutons verts avec une croix noire pour zoomer, sur le bouton vert avec un tiret pour effectuer un zoom arrière, ou sur les flèches vertes pour les cartes adjacentes.


METAR-TAF: